createdAt,value
2016-09-04T00:00:27.159Z,18.19
2016-09-04T00:01:27.177Z,18.08
2016-09-04T00:02:27.190Z,18.16
2016-09-04T00:03:27.234Z,18.16
2016-09-04T00:04:27.248Z,18.19
2016-09-04T00:05:27.264Z,18.18
2016-09-04T00:06:27.282Z,18.13
2016-09-04T00:07:27.305Z,18.19
2016-09-04T00:08:27.329Z,18.25
2016-09-04T00:09:27.349Z,18.23
2016-09-04T00:10:27.385Z,18.2
2016-09-04T00:11:27.388Z,18.28
2016-09-04T00:12:27.417Z,18.19
2016-09-04T00:13:27.443Z,18.18
2016-09-04T00:14:27.461Z,18.19
2016-09-04T00:15:27.480Z,18.22
2016-09-04T00:16:27.496Z,18.23
2016-09-04T00:17:27.529Z,18.19
2016-09-04T00:18:27.550Z,18.29
2016-09-04T00:19:27.570Z,18.19
2016-09-04T00:20:27.591Z,18.29
2016-09-04T00:21:27.612Z,18.19
2016-09-04T00:22:27.635Z,18.25
2016-09-04T00:23:27.660Z,18.16
2016-09-04T00:24:27.681Z,18.22
2016-09-04T00:25:27.704Z,18.31
2016-09-04T00:26:27.720Z,18.23
2016-09-04T00:27:27.741Z,18.33
2016-09-04T00:28:27.775Z,18.22
2016-09-04T00:29:27.796Z,18.4
2016-09-04T00:30:27.803Z,18.26
2016-09-04T00:31:27.834Z,18.31
2016-09-04T00:32:27.855Z,18.31
2016-09-04T00:33:27.873Z,18.31
2016-09-04T00:34:27.894Z,18.34
2016-09-04T00:35:27.916Z,18.26
2016-09-04T00:36:27.934Z,18.33
2016-09-04T00:37:27.958Z,18.28
2016-09-04T00:38:27.982Z,18.44
2016-09-04T00:39:28.020Z,18.33
2016-09-04T00:40:28.024Z,18.43
2016-09-04T00:41:28.046Z,18.38
2016-09-04T00:42:28.062Z,18.4
2016-09-04T00:43:28.100Z,18.49
2016-09-04T00:44:28.117Z,18.49
2016-09-04T00:45:28.134Z,18.47
2016-09-04T00:46:28.152Z,18.45
2016-09-04T00:47:28.186Z,18.49
2016-09-04T00:48:28.199Z,18.5
2016-09-04T00:49:28.219Z,18.6
2016-09-04T00:50:28.248Z,18.58
2016-09-04T00:51:28.262Z,18.62
2016-09-04T00:52:28.287Z,18.59
2016-09-04T00:53:28.308Z,18.71
2016-09-04T00:54:28.337Z,18.66
2016-09-04T00:55:28.356Z,18.65
2016-09-04T00:56:28.376Z,18.68
2016-09-04T00:57:28.399Z,18.59
2016-09-04T00:58:28.423Z,18.7
2016-09-04T00:59:28.445Z,18.66
2016-09-04T01:00:28.459Z,18.7
2016-09-04T01:01:28.487Z,18.68
2016-09-04T01:02:28.505Z,18.65
2016-09-04T01:03:28.529Z,18.71
2016-09-04T01:04:28.545Z,18.65
2016-09-04T01:05:28.577Z,18.68
2016-09-04T01:06:28.596Z,18.63
2016-09-04T01:07:28.618Z,18.7
2016-09-04T01:08:28.633Z,18.59
2016-09-04T01:09:28.667Z,18.65
2016-09-04T01:10:28.687Z,18.62
2016-09-04T01:11:28.705Z,18.6
2016-09-04T01:12:28.726Z,18.58
2016-09-04T01:13:28.753Z,18.68
2016-09-04T01:14:28.772Z,18.65
2016-09-04T01:15:28.791Z,18.7
2016-09-04T01:16:28.824Z,18.63
2016-09-04T01:17:28.850Z,18.73
2016-09-04T01:18:28.860Z,18.68
2016-09-04T01:19:28.878Z,18.74
2016-09-04T01:20:28.905Z,18.66
2016-09-04T01:21:28.931Z,18.8
2016-09-04T01:22:28.943Z,18.73
2016-09-04T01:23:28.972Z,18.84
2016-09-04T01:24:28.983Z,18.81
2016-09-04T01:25:29.018Z,18.84
2016-09-04T01:26:29.036Z,18.81
2016-09-04T01:27:29.056Z,18.83
2016-09-04T01:28:29.077Z,18.9
2016-09-04T01:29:29.098Z,18.93
2016-09-04T01:30:29.115Z,18.92
2016-09-04T01:31:29.155Z,18.9
2016-09-04T01:32:29.165Z,18.92
2016-09-04T01:33:29.194Z,18.92
2016-09-04T01:34:29.206Z,18.9
2016-09-04T01:35:29.237Z,18.95
2016-09-04T01:36:29.253Z,19.09
2016-09-04T01:37:29.284Z,19.04
2016-09-04T01:38:29.303Z,18.9
2016-09-04T01:39:29.318Z,18.99
2016-09-04T01:40:29.344Z,19.02
2016-09-04T01:41:29.365Z,19
2016-09-04T01:42:29.388Z,18.99
2016-09-04T01:43:29.411Z,19.07
2016-09-04T01:44:29.442Z,18.99
2016-09-04T01:45:29.452Z,19.02
2016-09-04T01:46:29.473Z,18.99
2016-09-04T01:47:29.503Z,18.99
2016-09-04T01:48:29.522Z,19.07
2016-09-04T01:49:29.541Z,19.04
2016-09-04T01:50:29.573Z,19.04
2016-09-04T01:51:29.581Z,19.02
2016-09-04T01:52:29.605Z,19.14
2016-09-04T01:53:29.633Z,19.11
2016-09-04T01:54:29.655Z,19.18
2016-09-04T01:55:29.677Z,19.16
2016-09-04T01:56:29.699Z,19.14
2016-09-04T01:57:29.721Z,19.19
2016-09-04T01:58:29.740Z,19.24
2016-09-04T01:59:29.762Z,19.22
2016-09-04T02:00:29.783Z,19.37
2016-09-04T02:01:29.809Z,19.36
2016-09-04T02:02:29.830Z,19.4
2016-09-04T02:03:29.853Z,19.37
2016-09-04T02:04:29.873Z,19.4
2016-09-04T02:05:29.891Z,19.39
2016-09-04T02:06:29.920Z,19.54
2016-09-04T02:07:29.949Z,19.54
2016-09-04T02:08:29.963Z,19.52
2016-09-04T02:09:29.986Z,19.49
2016-09-04T02:10:30.006Z,19.55
2016-09-04T02:11:30.028Z,19.55
2016-09-04T02:12:30.048Z,19.56
2016-09-04T02:13:30.078Z,19.56
2016-09-04T02:14:30.086Z,19.67
2016-09-04T02:15:30.119Z,19.55
2016-09-04T02:16:30.135Z,19.59
2016-09-04T02:17:30.182Z,19.64
2016-09-04T02:18:30.196Z,19.64
2016-09-04T02:19:30.208Z,19.64
2016-09-04T02:20:30.229Z,19.66
2016-09-04T02:21:30.249Z,19.63
2016-09-04T02:22:30.273Z,19.63
2016-09-04T02:23:30.311Z,19.69
2016-09-04T02:24:30.314Z,19.77
2016-09-04T02:25:30.345Z,19.69
2016-09-04T02:26:30.352Z,19.63
2016-09-04T02:27:30.392Z,19.73
2016-09-04T02:28:30.412Z,19.7
2016-09-04T02:29:30.435Z,19.71
2016-09-04T02:30:30.446Z,19.71
2016-09-04T02:31:30.475Z,19.7
2016-09-04T02:32:30.497Z,19.73
2016-09-04T02:33:30.512Z,19.73
2016-09-04T02:34:30.540Z,19.7
2016-09-04T02:35:30.558Z,19.77
2016-09-04T02:36:30.579Z,19.73
2016-09-04T02:37:30.608Z,19.74
2016-09-04T02:38:30.625Z,19.7
2016-09-04T02:39:30.656Z,19.85
2016-09-04T02:40:30.669Z,19.79
2016-09-04T02:41:30.706Z,19.73
2016-09-04T02:42:30.720Z,19.84
2016-09-04T02:43:30.745Z,19.79
2016-09-04T02:44:30.760Z,19.84
2016-09-04T02:45:30.791Z,19.86
2016-09-04T02:46:30.810Z,19.81
2016-09-04T02:47:30.832Z,19.91
2016-09-04T02:48:30.850Z,19.88
2016-09-04T02:49:30.875Z,19.91
2016-09-04T02:50:30.896Z,19.91
2016-09-04T02:51:30.917Z,19.92
2016-09-04T02:52:30.941Z,19.91
2016-09-04T02:53:30.960Z,19.92
2016-09-04T02:54:30.989Z,19.91
2016-09-04T02:55:31.004Z,19.91
2016-09-04T02:56:31.045Z,19.89
2016-09-04T02:57:31.050Z,19.92
2016-09-04T02:58:31.069Z,19.85
2016-09-04T02:59:31.103Z,19.85
2016-09-04T03:00:31.115Z,19.85
2016-09-04T03:01:31.143Z,19.86
2016-09-04T03:02:31.164Z,19.84
2016-09-04T03:03:31.182Z,19.86
2016-09-04T03:04:31.203Z,19.88
2016-09-04T03:05:31.237Z,19.86
2016-09-04T03:06:31.256Z,19.85
2016-09-04T03:07:31.282Z,19.88
2016-09-04T03:08:31.294Z,19.91
2016-09-04T03:09:31.315Z,19.84
2016-09-04T03:10:31.348Z,19.94
2016-09-04T03:11:31.375Z,19.89
2016-09-04T03:12:31.394Z,19.88
2016-09-04T03:13:31.411Z,19.86
2016-09-04T03:14:31.430Z,19.84
2016-09-04T03:15:31.452Z,19.82
2016-09-04T03:16:31.478Z,19.88
2016-09-04T03:17:31.495Z,19.86
2016-09-04T03:18:31.529Z,19.85
2016-09-04T03:19:31.540Z,19.84
2016-09-04T03:20:31.577Z,19.85
2016-09-04T03:21:31.591Z,19.91
2016-09-04T03:22:31.616Z,19.92
2016-09-04T03:23:31.629Z,19.86
2016-09-04T03:24:31.655Z,19.95
2016-09-04T03:25:31.680Z,19.95
2016-09-04T03:26:31.705Z,20.04
2016-09-04T03:27:31.731Z,20
2016-09-04T03:28:31.749Z,20.03
2016-09-04T03:29:31.769Z,20
2016-09-04T03:30:31.790Z,20.03
2016-09-04T03:31:31.821Z,20
2016-09-04T03:32:31.842Z,20.07
2016-09-04T03:33:31.857Z,20.06
2016-09-04T03:34:31.881Z,20.07
2016-09-04T03:35:31.901Z,20.14
2016-09-04T03:36:31.938Z,20.13
2016-09-04T03:37:31.947Z,20.22
2016-09-04T03:38:31.962Z,20.24
2016-09-04T03:39:31.996Z,20.22
2016-09-04T03:40:32.016Z,20.14
2016-09-04T03:41:32.039Z,20.24
2016-09-04T03:42:32.062Z,20.22
2016-09-04T03:43:32.082Z,20.13
2016-09-04T03:44:32.109Z,20.19
2016-09-04T03:45:32.126Z,20.19
2016-09-04T03:46:32.154Z,20.14
2016-09-04T03:47:32.168Z,20.21
2016-09-04T03:48:32.191Z,20.18
2016-09-04T03:49:32.218Z,20.24
2016-09-04T03:50:32.250Z,20.22
2016-09-04T03:51:32.258Z,20.19
2016-09-04T03:52:32.280Z,20.21
2016-09-04T03:53:32.308Z,20.18
2016-09-04T03:54:32.342Z,20.22
2016-09-04T03:55:32.347Z,20.22
2016-09-04T03:56:32.380Z,20.21
2016-09-04T03:57:32.388Z,20.21
2016-09-04T03:58:32.427Z,20.19
2016-09-04T03:59:32.442Z,20.19
2016-09-04T04:01:47.324Z,20.19
2016-09-04T04:02:32.506Z,20.22
2016-09-04T04:03:32.518Z,20.19
2016-09-04T04:04:32.540Z,20.28
2016-09-04T04:05:32.556Z,20.22
2016-09-04T04:06:32.593Z,20.24
2016-09-04T04:07:32.609Z,20.22
2016-09-04T04:08:32.631Z,20.22
2016-09-04T04:09:32.652Z,20.25
2016-09-04T04:10:32.675Z,20.22
2016-09-04T04:11:32.694Z,20.21
2016-09-04T04:12:32.722Z,20.22
2016-09-04T04:13:32.736Z,20.19
2016-09-04T04:14:32.769Z,20.19
2016-09-04T04:15:32.787Z,20.19
2016-09-04T04:16:32.800Z,20.21
2016-09-04T04:17:32.837Z,20.18
2016-09-04T04:18:32.858Z,20.18
2016-09-04T04:19:32.874Z,20.21
2016-09-04T04:20:32.906Z,20.21
2016-09-04T04:21:32.923Z,20.22
2016-09-04T04:22:32.943Z,20.25
2016-09-04T04:23:32.967Z,20.26
2016-09-04T04:24:32.993Z,20.14
2016-09-04T04:25:33.003Z,20.22
2016-09-04T04:26:33.035Z,20.21
2016-09-04T04:27:33.052Z,20.25
2016-09-04T04:28:33.084Z,20.22
2016-09-04T04:29:33.105Z,20.21
2016-09-04T04:30:33.111Z,20.24
2016-09-04T04:31:33.156Z,20.16
2016-09-04T04:32:33.169Z,20.19
2016-09-04T04:33:33.185Z,20.19
2016-09-04T04:34:33.222Z,20.18
2016-09-04T04:35:33.227Z,20.22
2016-09-04T04:36:33.259Z,20.16
2016-09-04T04:37:33.277Z,20.21
2016-09-04T04:38:33.309Z,20.16
2016-09-04T04:39:33.315Z,20.21
2016-09-04T04:40:33.342Z,20.1
2016-09-04T04:41:33.370Z,19.99
2016-09-04T04:42:33.389Z,20
2016-09-04T04:43:33.404Z,20.04
2016-09-04T04:44:33.430Z,19.99
2016-09-04T04:45:33.458Z,20.04
2016-09-04T04:46:33.487Z,19.99
2016-09-04T04:47:33.492Z,20.02
2016-09-04T04:48:33.526Z,20
2016-09-04T04:49:33.549Z,20.02
2016-09-04T04:50:33.572Z,20.02
2016-09-04T04:51:33.594Z,20
2016-09-04T04:52:33.609Z,20
2016-09-04T04:53:33.638Z,19.96
2016-09-04T04:54:33.655Z,19.96
2016-09-04T04:55:33.680Z,19.94
2016-09-04T04:56:33.699Z,19.92
2016-09-04T04:57:33.726Z,19.92
2016-09-04T04:58:33.751Z,19.88
2016-09-04T04:59:33.768Z,19.91
2016-09-04T05:00:33.792Z,19.91
2016-09-04T05:01:33.825Z,19.91
2016-09-04T05:02:33.839Z,19.91
2016-09-04T05:03:33.854Z,19.84
2016-09-04T05:04:33.889Z,19.73
2016-09-04T05:05:33.897Z,19.74
2016-09-04T05:06:33.925Z,19.74
2016-09-04T05:07:33.949Z,19.73
2016-09-04T05:08:33.969Z,19.77
2016-09-04T05:09:33.989Z,19.69
2016-09-04T05:10:34.010Z,19.69
2016-09-04T05:11:34.032Z,19.71
2016-09-04T05:12:34.065Z,19.59
2016-09-04T05:13:34.072Z,19.63
2016-09-04T05:14:34.104Z,19.66
2016-09-04T05:15:34.122Z,19.55
2016-09-04T05:16:34.153Z,19.59
2016-09-04T05:17:34.158Z,19.52
2016-09-04T05:18:34.191Z,19.52
2016-09-04T05:19:34.214Z,19.48
2016-09-04T05:20:34.239Z,19.51
2016-09-04T05:21:34.251Z,19.48
2016-09-04T05:22:34.290Z,19.4
2016-09-04T05:23:34.297Z,19.33
2016-09-04T05:24:34.325Z,19.36
2016-09-04T05:25:34.344Z,19.36
2016-09-04T05:26:34.371Z,19.39
2016-09-04T05:27:34.387Z,19.34
2016-09-04T05:28:34.403Z,19.29
2016-09-04T05:29:34.433Z,19.37
2016-09-04T05:30:34.465Z,19.33
2016-09-04T05:31:34.484Z,19.29
2016-09-04T05:32:34.498Z,19.22
2016-09-04T05:33:34.520Z,19.27
2016-09-04T05:34:34.548Z,19.31
2016-09-04T05:35:34.565Z,19.3
2016-09-04T05:36:34.594Z,19.24
2016-09-04T05:37:34.604Z,19.19
2016-09-04T05:38:34.631Z,19.21
2016-09-04T05:39:34.655Z,19.18
2016-09-04T05:40:34.673Z,19.15
2016-09-04T05:41:34.695Z,19.15
2016-09-04T05:42:34.722Z,19.14
2016-09-04T05:43:34.751Z,19.19
2016-09-04T05:44:34.766Z,19.21
2016-09-04T05:45:34.788Z,19.21
2016-09-04T05:46:34.810Z,19.14
2016-09-04T05:47:34.824Z,19.21
2016-09-04T05:48:34.854Z,19.14
2016-09-04T05:49:34.871Z,19.15
2016-09-04T05:50:34.898Z,19.16
2016-09-04T05:51:34.917Z,19.16
2016-09-04T05:52:34.940Z,19.16
2016-09-04T05:53:34.958Z,19.18
2016-09-04T05:54:34.982Z,19.15
2016-09-04T05:55:35.004Z,19.15
2016-09-04T05:56:35.026Z,19.15
2016-09-04T05:57:35.049Z,19.16
2016-09-04T05:58:35.074Z,19.12
2016-09-04T05:59:35.098Z,19.16
2016-09-04T06:00:35.123Z,19.16
2016-09-04T06:01:35.136Z,19.11
2016-09-04T06:02:35.179Z,19.18
2016-09-04T06:03:35.178Z,19.16
2016-09-04T06:04:35.210Z,19.19
2016-09-04T06:05:35.223Z,19.14
2016-09-04T06:06:35.251Z,19.12
2016-09-04T06:07:35.274Z,19.16
2016-09-04T06:08:35.293Z,19.09
2016-09-04T06:09:35.305Z,19.07
2016-09-04T06:10:36.053Z,19
2016-09-04T06:11:35.356Z,18.99
2016-09-04T06:12:35.384Z,19
2016-09-04T06:13:35.401Z,19
2016-09-04T06:14:35.435Z,18.99
2016-09-04T06:15:35.444Z,19
2016-09-04T06:16:35.467Z,19.02
2016-09-04T06:17:35.488Z,19.07
2016-09-04T06:18:35.519Z,19.02
2016-09-04T06:19:35.537Z,18.96
2016-09-04T06:20:35.554Z,19.02
2016-09-04T06:21:35.577Z,19.09
2016-09-04T06:22:35.602Z,19
2016-09-04T06:23:35.630Z,18.96
2016-09-04T06:24:35.643Z,19.07
2016-09-04T06:25:35.664Z,19.14
2016-09-04T06:26:35.692Z,19.14
2016-09-04T06:27:35.710Z,19.14
2016-09-04T06:28:35.733Z,19.27
2016-09-04T06:29:35.756Z,19.26
2016-09-04T06:30:35.781Z,19.31
2016-09-04T06:31:35.803Z,19.29
2016-09-04T06:32:35.823Z,19.41
2016-09-04T06:33:35.844Z,19.4
2016-09-04T06:34:35.867Z,19.36
2016-09-04T06:35:35.897Z,19.34
2016-09-04T06:36:35.906Z,19.41
2016-09-04T06:37:35.929Z,19.36
2016-09-04T06:38:35.961Z,19.41
2016-09-04T06:39:35.987Z,19.37
2016-09-04T06:40:36.012Z,19.29
2016-09-04T06:41:36.013Z,19.37
2016-09-04T06:42:36.039Z,19.34
2016-09-04T06:43:36.070Z,19.33
2016-09-04T06:44:36.079Z,19.36
2016-09-04T06:45:36.110Z,19.29
2016-09-04T06:46:36.128Z,19.44
2016-09-04T06:47:36.151Z,19.29
2016-09-04T06:48:36.176Z,19.4
2016-09-04T06:49:36.202Z,19.33
2016-09-04T06:50:36.222Z,19.36
2016-09-04T06:51:36.243Z,19.47
2016-09-04T06:52:36.270Z,19.48
2016-09-04T06:53:36.280Z,19.51
2016-09-04T06:54:36.313Z,19.47
2016-09-04T06:55:36.334Z,19.44
2016-09-04T06:56:36.351Z,19.47
2016-09-04T06:57:36.379Z,19.39
2016-09-04T06:58:36.396Z,19.47
2016-09-04T06:59:36.418Z,19.41
2016-09-04T07:00:36.450Z,19.44
2016-09-04T07:01:36.465Z,19.39
2016-09-04T07:02:36.499Z,19.31
2016-09-04T07:03:36.511Z,19.39
2016-09-04T07:04:36.536Z,19.39
2016-09-04T07:05:36.566Z,19.34
2016-09-04T07:06:36.575Z,19.33
2016-09-04T07:07:36.587Z,19.33
2016-09-04T07:08:36.616Z,19.31
2016-09-04T07:09:36.648Z,19.33
2016-09-04T07:10:36.669Z,19.19
2016-09-04T07:11:36.685Z,19.24
2016-09-04T07:12:36.708Z,19.26
2016-09-04T07:13:36.742Z,19.27
2016-09-04T07:14:36.757Z,19.3
2016-09-04T07:15:36.770Z,19.29
2016-09-04T07:16:36.796Z,19.3
2016-09-04T07:17:36.815Z,19.29
2016-09-04T07:18:36.838Z,19.29
2016-09-04T07:19:36.866Z,19.29
2016-09-04T07:20:36.888Z,19.33
2016-09-04T07:21:36.911Z,19.31
2016-09-04T07:22:36.925Z,19.19
2016-09-04T07:23:36.939Z,19.27
2016-09-04T07:24:36.972Z,19.3
2016-09-04T07:25:36.995Z,19.31
2016-09-04T07:26:37.016Z,19.33
2016-09-04T07:27:37.026Z,19.29
2016-09-04T07:28:37.060Z,19.26
2016-09-04T07:29:37.076Z,19.4
2016-09-04T07:30:37.107Z,19.36
2016-09-04T07:31:37.129Z,19.51
2016-09-04T07:32:37.145Z,19.52
2016-09-04T07:33:37.162Z,19.49
2016-09-04T07:34:37.195Z,19.55
2016-09-04T07:35:37.218Z,19.52
2016-09-04T07:36:37.241Z,19.51
2016-09-04T07:37:37.266Z,19.54
2016-09-04T07:38:37.286Z,19.54
2016-09-04T07:39:37.300Z,19.54
2016-09-04T07:40:37.339Z,19.51
2016-09-04T07:41:37.353Z,19.52
2016-09-04T07:42:37.370Z,19.55
2016-09-04T07:43:37.391Z,19.52
2016-09-04T07:44:37.412Z,19.49
2016-09-04T07:45:37.445Z,19.55
2016-09-04T07:46:37.464Z,19.67
2016-09-04T07:47:37.495Z,19.66
2016-09-04T07:48:37.509Z,19.74
2016-09-04T07:49:37.521Z,19.73
2016-09-04T07:50:37.551Z,19.71
2016-09-04T07:51:37.577Z,19.73
2016-09-04T07:52:37.594Z,19.7
2016-09-04T07:53:37.614Z,19.7
2016-09-04T07:54:37.638Z,19.73
2016-09-04T07:55:37.661Z,19.73
2016-09-04T07:56:37.681Z,19.7
2016-09-04T07:57:37.702Z,19.66
2016-09-04T07:58:37.731Z,19.66
2016-09-04T07:59:37.765Z,19.62
2016-09-04T08:00:37.777Z,19.63
2016-09-04T08:01:37.799Z,19.62
2016-09-04T08:02:37.821Z,19.59
2016-09-04T08:03:37.839Z,19.59
2016-09-04T08:04:37.865Z,19.56
2016-09-04T08:05:37.882Z,19.52
2016-09-04T08:06:37.906Z,19.59
2016-09-04T08:07:37.944Z,19.64
2016-09-04T08:08:37.958Z,19.62
2016-09-04T08:09:37.972Z,19.54
2016-09-04T08:10:37.995Z,19.55
2016-09-04T08:11:38.021Z,19.55
2016-09-04T08:12:38.044Z,19.62
2016-09-04T08:13:38.065Z,19.64
2016-09-04T08:14:38.088Z,19.64
2016-09-04T08:15:38.107Z,19.67
2016-09-04T08:16:38.135Z,19.67
2016-09-04T08:17:38.157Z,19.71
2016-09-04T08:18:38.183Z,19.73
2016-09-04T08:19:38.193Z,19.85
2016-09-04T08:20:38.216Z,19.88
2016-09-04T08:21:38.240Z,19.96
2016-09-04T08:22:38.268Z,20.07
2016-09-04T08:23:38.289Z,20.07
2016-09-04T08:24:38.311Z,20.22
2016-09-04T08:25:38.331Z,20.19
2016-09-04T08:26:38.359Z,20.29
2016-09-04T08:27:38.380Z,20.39
2016-09-04T08:28:38.411Z,20.4
2016-09-04T08:29:38.414Z,20.4
2016-09-04T08:30:38.449Z,20.52
2016-09-04T08:31:38.472Z,20.56
2016-09-04T08:32:38.491Z,20.63
2016-09-04T08:33:38.520Z,20.62
2016-09-04T08:34:38.536Z,20.62
2016-09-04T08:35:38.557Z,20.66
2016-09-04T08:36:38.586Z,20.75
2016-09-04T08:37:38.603Z,20.74
2016-09-04T08:38:38.633Z,20.77
2016-09-04T08:39:38.648Z,20.74
2016-09-04T08:40:38.675Z,20.82
2016-09-04T08:41:38.697Z,20.78
2016-09-04T08:42:38.723Z,-39.99
2016-09-04T08:43:38.742Z,-39.99
2016-09-04T08:44:38.760Z,-39.99
2016-09-04T08:45:38.790Z,-39.99
2016-09-04T08:46:38.819Z,-39.99
2016-09-04T08:47:38.828Z,-39.99
2016-09-04T08:48:38.848Z,-39.99
2016-09-04T08:49:38.879Z,-39.99
2016-09-04T08:50:38.904Z,-39.99
2016-09-04T08:51:38.931Z,-39.99
2016-09-04T08:52:38.952Z,-39.99
2016-09-04T08:53:38.965Z,-39.99
2016-09-04T08:54:38.993Z,-39.99
2016-09-04T08:55:39.009Z,-39.99
2016-09-04T08:56:39.035Z,-39.99
2016-09-04T08:57:39.062Z,-39.99
2016-09-04T08:58:39.074Z,-39.99
2016-09-04T08:59:39.105Z,-39.99
2016-09-04T09:00:39.135Z,-39.99
2016-09-04T09:01:39.159Z,-39.99
2016-09-04T09:02:39.180Z,-39.99
2016-09-04T09:03:39.197Z,-39.99
2016-09-04T09:04:39.222Z,-39.99
2016-09-04T09:05:39.252Z,-39.99
2016-09-04T09:06:39.272Z,-39.99
2016-09-04T09:07:39.294Z,-39.99
2016-09-04T09:08:39.318Z,-39.99
2016-09-04T09:09:39.336Z,-39.99
2016-09-04T09:10:39.368Z,-39.99
2016-09-04T09:11:39.387Z,-39.99
2016-09-04T09:12:39.420Z,-39.99
2016-09-04T09:13:39.422Z,-39.99
2016-09-04T09:14:39.459Z,-39.99
2016-09-04T09:15:39.480Z,-39.99
2016-09-04T09:16:39.507Z,-39.99
2016-09-04T09:17:39.521Z,-39.99
2016-09-04T09:18:39.549Z,-39.99
2016-09-04T09:19:39.573Z,-39.99
2016-09-04T09:20:39.607Z,-39.99
2016-09-04T09:21:39.611Z,-39.99
2016-09-04T09:22:39.635Z,-39.99
2016-09-04T09:23:39.664Z,-39.99
2016-09-04T09:24:39.690Z,-39.99
2016-09-04T09:25:39.702Z,-39.99
2016-09-04T09:26:39.739Z,-39.99
2016-09-04T09:27:39.766Z,-39.99
2016-09-04T09:28:39.788Z,-39.99
2016-09-04T09:29:39.806Z,-39.99
2016-09-04T09:30:39.836Z,-39.99
2016-09-04T09:31:39.858Z,-39.99
2016-09-04T09:32:39.873Z,-39.99
2016-09-04T09:33:39.900Z,-39.99
2016-09-04T09:34:39.931Z,-39.99
2016-09-04T09:35:39.946Z,-39.99
2016-09-04T09:36:39.978Z,-39.99
2016-09-04T09:37:39.993Z,-39.99
2016-09-04T09:38:40.026Z,-39.99
2016-09-04T09:39:40.042Z,-39.99
2016-09-04T09:40:40.079Z,-39.99
2016-09-04T09:41:40.091Z,-39.99
2016-09-04T09:42:40.120Z,-39.99
2016-09-04T09:43:40.140Z,-39.99
2016-09-04T09:44:40.164Z,-39.99
2016-09-04T09:45:40.188Z,-39.99
2016-09-04T09:46:40.203Z,-39.99
2016-09-04T09:47:40.233Z,-39.99
2016-09-04T09:48:40.268Z,-39.99
2016-09-04T09:49:40.298Z,-39.99
2016-09-04T09:50:40.311Z,-39.99
2016-09-04T09:51:40.324Z,-39.99
2016-09-04T09:52:40.361Z,-39.99
2016-09-04T09:53:40.382Z,-39.99
2016-09-04T09:54:40.406Z,-39.99
2016-09-04T09:55:40.427Z,-39.99
2016-09-04T09:56:40.456Z,22.99
2016-09-04T09:57:40.473Z,23.13
2016-09-04T09:58:40.506Z,23.18
2016-09-04T09:59:41.527Z,23.32
2016-09-04T10:00:40.546Z,23.56
2016-09-04T10:01:40.614Z,23.55
2016-09-04T10:02:40.601Z,23.74
2016-09-04T10:03:40.633Z,23.8
2016-09-04T10:04:40.658Z,23.78
2016-09-04T10:05:40.913Z,23.87
2016-09-04T10:06:40.872Z,23.86
2016-09-04T10:07:44.217Z,23.96
2016-09-04T10:08:45.183Z,24.03
2016-09-04T10:09:41.658Z,24.01
2016-09-04T10:10:42.383Z,24.02
2016-09-04T10:11:43.194Z,23.96
2016-09-04T10:12:45.333Z,23.91
2016-09-04T10:13:51.888Z,23.91
2016-09-04T10:14:49.669Z,23.83
2016-09-04T10:15:41.030Z,23.71
2016-09-04T10:16:41.139Z,23.65
2016-09-04T10:17:40.957Z,23.66
2016-09-04T10:18:41.016Z,23.58
2016-09-04T10:19:41.008Z,23.58
2016-09-04T10:20:41.035Z,23.48
2016-09-04T10:21:41.072Z,23.54
2016-09-04T10:22:41.086Z,23.31
2016-09-04T10:23:41.339Z,23.36
2016-09-04T10:24:41.136Z,23.1
2016-09-04T10:25:41.170Z,23.13
2016-09-04T10:26:41.235Z,23
2016-09-04T10:27:41.251Z,22.96
2016-09-04T10:28:41.242Z,22.91
2016-09-04T10:29:41.810Z,22.84
2016-09-04T10:30:41.280Z,22.76
2016-09-04T10:31:41.920Z,22.59
2016-09-04T10:32:41.332Z,22.47
2016-09-04T10:33:42.159Z,22.45
2016-09-04T10:34:41.418Z,22.43
2016-09-04T10:35:41.388Z,22.35
2016-09-04T10:36:41.718Z,22.26
2016-09-04T10:37:41.438Z,22.22
2016-09-04T10:38:41.470Z,22.13
2016-09-04T10:39:41.486Z,22.02
2016-09-04T10:40:43.211Z,21.96
2016-09-04T10:41:41.595Z,21.91
2016-09-04T10:42:43.093Z,21.79
2016-09-04T10:43:45.037Z,21.79
2016-09-04T10:44:42.776Z,21.76
2016-09-04T10:45:49.538Z,21.75
2016-09-04T10:46:44.881Z,21.72
2016-09-04T10:47:44.546Z,21.7
2016-09-04T10:49:01.702Z,21.55
2016-09-04T10:50:10.246Z,21.5
2016-09-04T10:51:04.494Z,21.46
2016-09-04T10:52:04.262Z,21.39
2016-09-04T10:53:03.556Z,21.35
2016-09-04T10:54:03.700Z,21.3
2016-09-04T10:55:03.602Z,21.35
2016-09-04T10:56:03.430Z,21.25
2016-09-04T10:57:01.224Z,21.25
2016-09-04T10:58:00.677Z,21.24
2016-09-04T10:58:59.690Z,21.18
2016-09-04T11:00:00.751Z,21.27
2016-09-04T11:01:00.429Z,21.24
2016-09-04T11:01:59.988Z,21.21
2016-09-04T11:02:49.084Z,21.25
2016-09-04T11:03:46.747Z,21.24
2016-09-04T11:04:50.315Z,21.15
2016-09-04T11:05:43.289Z,21.25
2016-09-04T11:07:00.248Z,21.27
2016-09-04T11:08:03.976Z,21.21
2016-09-04T11:09:04.466Z,21.12
2016-09-04T11:10:03.254Z,21.09
2016-09-04T11:11:05.872Z,21.09
2016-09-04T11:12:03.607Z,21.27
2016-09-04T11:13:03.616Z,21.18
2016-09-04T11:14:03.563Z,21.21
2016-09-04T11:14:58.933Z,21.17
2016-09-04T11:16:49.620Z,21.24
2016-09-04T11:18:00.849Z,21.24
2016-09-04T11:18:45.838Z,21.2
2016-09-04T11:19:50.072Z,21.24
2016-09-04T11:20:46.808Z,21.27
2016-09-04T11:21:45.679Z,21.2
2016-09-04T11:22:44.206Z,21.15
2016-09-04T11:23:43.122Z,21.17
2016-09-04T11:24:43.076Z,21.03
2016-09-04T11:25:43.219Z,21.02
2016-09-04T11:26:42.959Z,20.88
2016-09-04T11:27:42.610Z,20.93
2016-09-04T11:28:42.632Z,20.77
2016-09-04T11:29:43.209Z,20.8
2016-09-04T11:30:42.665Z,20.74
2016-09-04T11:31:46.367Z,20.7
2016-09-04T11:32:42.734Z,20.63
2016-09-04T11:33:42.849Z,20.66
2016-09-04T11:34:42.859Z,20.62
2016-09-04T11:35:42.813Z,20.5
2016-09-04T11:36:42.819Z,20.52
2016-09-04T11:37:43.153Z,20.55
2016-09-04T11:38:42.863Z,20.44
2016-09-04T11:39:42.886Z,20.44
2016-09-04T11:40:42.902Z,20.39
2016-09-04T11:41:42.926Z,20.31
2016-09-04T11:42:43.460Z,20.26
2016-09-04T11:43:42.990Z,20.22
2016-09-04T11:44:42.996Z,20.22
2016-09-04T11:45:43.170Z,20.19
2016-09-04T11:46:43.042Z,20.18
2016-09-04T11:47:43.063Z,20.1
2016-09-04T11:48:43.101Z,20.1
2016-09-04T11:49:43.112Z,20.1
2016-09-04T11:50:43.126Z,20.04
2016-09-04T11:51:43.540Z,20.04
2016-09-04T11:52:43.179Z,19.99
2016-09-04T11:53:43.215Z,20.03
2016-09-04T11:54:43.604Z,19.96
2016-09-04T11:55:43.243Z,19.94
2016-09-04T11:56:43.261Z,19.86
2016-09-04T11:57:43.307Z,19.85
2016-09-04T11:58:43.315Z,19.88
2016-09-04T11:59:43.333Z,19.94
2016-09-04T12:00:43.364Z,19.96
2016-09-04T12:01:43.381Z,19.96
2016-09-04T12:02:43.413Z,19.96
2016-09-04T12:03:43.436Z,19.99
2016-09-04T12:04:43.453Z,19.96
2016-09-04T12:05:43.465Z,19.84
2016-09-04T12:06:44.097Z,19.85
2016-09-04T12:07:43.513Z,19.84
2016-09-04T12:08:43.550Z,19.81
2016-09-04T12:09:43.823Z,19.82
2016-09-04T12:10:43.586Z,19.71
2016-09-04T12:11:43.611Z,19.79
2016-09-04T12:12:43.668Z,19.81
2016-09-04T12:13:43.666Z,19.84
2016-09-04T12:14:43.668Z,19.84
2016-09-04T12:15:43.697Z,19.86
2016-09-04T12:16:43.818Z,19.84
2016-09-04T12:17:44.743Z,19.84
2016-09-04T12:18:44.416Z,19.88
2016-09-04T12:19:44.711Z,19.91
2016-09-04T12:20:45.030Z,19.86
2016-09-04T12:21:43.873Z,19.81
2016-09-04T12:22:43.982Z,19.77
2016-09-04T12:23:44.534Z,19.73
2016-09-04T12:24:44.136Z,19.71
2016-09-04T12:25:44.840Z,19.74
2016-09-04T12:26:56.870Z,19.91
2016-09-04T12:27:44.164Z,19.86
2016-09-04T12:28:44.997Z,19.84
2016-09-04T12:29:44.076Z,20.02
2016-09-04T12:30:44.036Z,19.95
2016-09-04T12:33:08.459Z,20.03
2016-09-04T12:33:49.728Z,20.04
2016-09-04T12:34:45.002Z,20.02
2016-09-04T12:35:44.283Z,20.02
2016-09-04T12:37:13.348Z,20.03
2016-09-04T12:37:48.079Z,20.02
2016-09-04T12:38:44.731Z,20.06
2016-09-04T12:39:45.033Z,20.06
2016-09-04T12:40:53.435Z,19.99
2016-09-04T12:42:01.934Z,20.03
2016-09-04T12:42:44.826Z,19.96
2016-09-04T12:43:44.578Z,20.06
2016-09-04T12:44:44.592Z,19.88
2016-09-04T12:45:44.614Z,19.85
2016-09-04T12:46:44.660Z,19.77
2016-09-04T12:47:44.661Z,19.64
2016-09-04T12:48:44.685Z,19.71
2016-09-04T12:49:44.698Z,19.71
2016-09-04T12:50:44.725Z,19.69
2016-09-04T12:51:44.750Z,19.7
2016-09-04T12:52:44.763Z,19.47
2016-09-04T12:53:44.798Z,19.52
2016-09-04T12:54:44.812Z,19.58
2016-09-04T12:55:44.843Z,19.64
2016-09-04T12:56:44.890Z,19.56